Time;durP1;ratioP1;P1;durP2;ratioP2;P2;SDS_P1;SDS_P2;PMS_P1;PMS_P2;Temp;Humidity;BMP_temperature;BMP_pressure;BME280_temperature;BME280_humidity;BME280_pressure;Samples;Min_cycle;Max_cycle;Signal;HPM_P1;HPM_P2
2021/04/28 00:00:28;;;;;;;12.27;8.18;;;13.90;43.80;;;;;;5010064;28;20037;-78
2021/04/28 00:02:56;;;;;;;9.25;8.18;;;13.90;44.00;;;;;;5011911;28;20030;-79
2021/04/28 00:05:22;;;;;;;10.93;9.00;;;13.90;43.90;;;;;;5030985;28;20484;-78
2021/04/28 00:07:49;;;;;;;10.25;8.45;;;13.90;44.00;;;;;;5031118;28;20473;-81
2021/04/28 00:10:18;;;;;;;10.23;8.82;;;13.80;43.80;;;;;;5029598;28;20033;-79
2021/04/28 00:12:45;;;;;;;11.90;10.23;;;13.80;43.90;;;;;;5035319;28;20064;-81
2021/04/28 00:15:18;;;;;;;10.20;8.48;;;13.70;43.70;;;;;;5037083;28;20082;-78
2021/04/28 00:17:44;;;;;;;11.38;8.80;;;13.80;44.00;;;;;;5006384;28;20029;-80
2021/04/28 00:20:12;;;;;;;13.15;10.73;;;13.70;43.90;;;;;;5013086;28;20030;-78
2021/04/28 00:22:39;;;;;;;11.38;8.93;;;13.70;43.90;;;;;;5025361;28;20030;-79
2021/04/28 00:25:08;;;;;;;11.80;10.05;;;13.70;44.00;;;;;;5015985;28;20098;-79
2021/04/28 00:27:35;;;;;;;12.07;9.68;;;13.70;44.10;;;;;;5032622;28;20043;-80
2021/04/28 00:30:08;;;;;;;12.13;10.73;;;13.60;43.90;;;;;;5031578;28;20052;-80
2021/04/28 00:32:35;;;;;;;11.57;10.45;;;13.60;44.00;;;;;;5023875;28;20041;-80
2021/04/28 00:35:03;;;;;;;11.77;10.55;;;13.60;44.00;;;;;;5040988;28;20268;-79
2021/04/28 00:37:29;;;;;;;12.80;11.23;;;13.60;44.10;;;;;;5028664;28;20037;-79
2021/04/28 00:39:55;;;;;;;11.32;10.15;;;13.60;44.10;;;;;;5032093;28;20831;-80
2021/04/28 00:42:21;;;;;;;12.90;10.32;;;13.60;44.20;;;;;;5016628;28;20029;-78
2021/04/28 00:44:47;;;;;;;12.85;10.68;;;13.50;44.00;;;;;;5012962;28;20091;-80
2021/04/28 00:47:13;;;;;;;13.65;11.35;;;13.50;44.10;;;;;;5023326;28;20022;-79
2021/04/28 00:49:39;;;;;;;13.80;11.05;;;13.50;44.10;;;;;;5023273;28;20029;-80
2021/04/28 00:52:06;;;;;;;11.75;10.55;;;13.40;43.90;;;;;;5026137;28;20042;-79
2021/04/28 00:54:33;;;;;;;11.75;10.65;;;13.40;44.00;;;;;;4992504;28;20056;-79
2021/04/28 00:57:00;;;;;;;13.25;11.85;;;13.40;44.10;;;;;;5035257;28;20087;-78
2021/04/28 00:59:29;;;;;;;13.57;12.20;;;13.40;44.10;;;;;;5017250;28;20091;-78
2021/04/28 01:01:56;;;;;;;15.65;12.85;;;13.40;44.20;;;;;;5025594;28;20024;-78
2021/04/28 01:04:26;;;;;;;15.40;12.82;;;13.30;44.00;;;;;;5008920;28;20431;-79
2021/04/28 01:06:54;;;;;;;13.18;11.95;;;13.30;44.10;;;;;;5026796;28;20036;-79
2021/04/28 01:09:21;;;;;;;13.85;12.43;;;13.30;44.10;;;;;;5001398;28;20025;-79
2021/04/28 01:11:47;;;;;;;13.75;12.02;;;13.20;44.00;;;;;;5040810;28;20029;-78
2021/04/28 01:14:13;;;;;;;15.25;13.18;;;13.30;44.20;;;;;;5015657;28;20053;-78
2021/04/28 01:16:40;;;;;;;14.00;12.57;;;13.20;44.20;;;;;;5037840;28;20037;-81
2021/04/28 01:19:06;;;;;;;13.75;12.30;;;13.20;44.20;;;;;;5009108;28;20068;-79
2021/04/28 01:21:40;;;;;;;13.80;12.50;;;13.20;44.20;;;;;;5031007;28;20036;-79
2021/04/28 01:24:07;;;;;;;14.73;12.77;;;13.10;44.10;;;;;;5013471;28;20041;-79
2021/04/28 01:26:33;;;;;;;15.02;13.05;;;13.20;44.30;;;;;;5005825;28;20033;-78
2021/04/28 01:29:01;;;;;;;13.95;12.55;;;13.10;44.80;;;;;;5021382;28;20029;-79
2021/04/28 01:31:33;;;;;;;14.48;13.02;;;13.10;44.20;;;;;;5003575;28;20492;-79
2021/04/28 01:34:02;;;;;;;14.68;13.02;;;13.10;44.30;;;;;;4993996;28;20096;-79
2021/04/28 01:36:33;;;;;;;17.27;13.00;;;13.00;44.20;;;;;;5011584;28;20033;-79
2021/04/28 01:39:04;;;;;;;15.32;13.73;;;13.10;44.40;;;;;;5026240;28;20030;-78
2021/04/28 01:41:37;;;;;;;14.80;12.93;;;13.00;44.30;;;;;;5010292;28;20481;-79
2021/04/28 01:44:03;;;;;;;14.68;13.18;;;13.00;44.30;;;;;;5010193;28;20414;-79
2021/04/28 01:46:31;;;;;;;15.77;12.63;;;13.00;44.30;;;;;;5026273;28;20087;-80
2021/04/28 01:49:00;;;;;;;15.52;14.02;;;12.90;44.20;;;;;;5011313;28;20473;-81
2021/04/28 01:51:28;;;;;;;15.00;13.50;;;12.90;44.20;;;;;;5011918;28;20087;-79
2021/04/28 01:53:55;;;;;;;15.07;13.27;;;12.90;44.20;;;;;;5011384;28;20599;-79
2021/04/28 01:56:22;;;;;;;14.25;12.80;;;12.90;44.30;;;;;;5028557;28;20036;-79
2021/04/28 01:59:09;;;;;;;14.95;13.32;;;12.90;44.30;;;;;;5015746;28;20096;-80
2021/04/28 02:01:53;;;;;;;;;;;12.90;44.40;;;;;;5011795;28;20457;-82
2021/04/28 02:04:23;;;;;;;14.70;13.20;;;12.80;44.10;;;;;;4979962;28;19909;-82
2021/04/28 02:06:50;;;;;;;16.63;14.38;;;12.80;44.10;;;;;;5029470;28;20026;-81
2021/04/28 02:09:17;;;;;;;14.30;12.90;;;12.80;44.30;;;;;;5013460;28;20029;-80
2021/04/28 02:11:44;;;;;;;14.85;13.45;;;12.80;44.30;;;;;;4996510;28;20037;-80
2021/04/28 02:14:20;;;;;;;15.43;13.93;;;12.70;44.20;;;;;;4996615;28;20048;-81
2021/04/28 02:17:09;;;;;;;15.23;13.25;;;12.70;44.40;;;;;;5013321;28;20389;-80
2021/04/28 02:19:38;;;;;;;16.08;14.27;;;12.70;44.30;;;;;;5013385;28;20558;-80
2021/04/28 02:22:07;;;;;;;15.35;13.88;;;12.70;44.50;;;;;;5013187;28;20405;-80
2021/04/28 02:24:47;;;;;;;15.30;13.80;;;12.70;44.50;;;;;;5005504;28;20042;-82
2021/04/28 02:27:19;;;;;;;15.57;14.07;;;12.70;44.50;;;;;;4978503;28;20412;-85
2021/04/28 02:29:48;;;;;;;17.90;14.60;;;12.70;44.50;;;;;;4993837;28;20448;-83
2021/04/28 02:32:15;;;;;;;16.70;15.02;;;12.70;44.50;;;;;;4993928;28;20046;-80
2021/04/28 02:35:00;;;;;;;19.77;14.52;;;12.70;44.50;;;;;;4998905;28;20034;-81
2021/04/28 02:37:38;;;;;;;15.65;13.95;;;12.70;44.50;;;;;;4982471;28;20030;-80
2021/04/28 02:40:22;;;;;;;15.43;13.85;;;12.70;44.50;;;;;;5014989;28;20034;-80
2021/04/28 02:42:49;;;;;;;16.80;15.20;;;12.60;44.30;;;;;;4997147;28;20030;-80
2021/04/28 02:45:17;;;;;;;16.58;14.85;;;12.70;44.60;;;;;;4981080;28;20042;-80
2021/04/28 02:47:49;;;;;;;16.17;14.55;;;12.60;44.50;;;;;;4980766;28;20038;-80
2021/04/28 02:50:23;;;;;;;17.90;15.98;;;12.60;44.50;;;;;;4996794;28;20141;-80
2021/04/28 02:53:15;;;;;;;15.63;14.02;;;12.60;44.50;;;;;;5008796;28;20046;-81
2021/04/28 02:55:43;;;;;;;16.42;14.38;;;12.60;44.50;;;;;;4996865;28;20025;-80
2021/04/28 02:58:12;;;;;;;15.90;14.25;;;12.60;44.50;;;;;;4996822;28;20412;-82
2021/04/28 03:00:52;;;;;;;16.40;14.90;;;12.50;44.40;;;;;;5014381;28;20030;-80
2021/04/28 03:03:19;;;;;;;16.10;14.48;;;12.60;44.60;;;;;;4996808;28;20030;-80
2021/04/28 03:05:53;;;;;;;16.88;14.75;;;12.50;44.40;;;;;;4996664;28;20037;-81
2021/04/28 03:08:27;;;;;;;16.42;14.85;;;12.50;44.50;;;;;;4996168;28;20038;-81
2021/04/28 03:10:54;;;;;;;21.17;16.15;;;12.50;44.50;;;;;;5012849;28;20040;-80
2021/04/28 03:13:21;;;;;;;17.55;15.73;;;12.50;44.60;;;;;;5013967;28;20057;-82
2021/04/28 03:15:49;;;;;;;17.42;15.63;;;12.40;44.40;;;;;;4996774;28;20116;-80
2021/04/28 03:18:16;;;;;;;17.27;15.48;;;12.40;44.40;;;;;;5013722;28;20497;-80
2021/04/28 03:20:48;;;;;;;18.08;15.80;;;12.40;44.40;;;;;;4996216;28;20624;-79
2021/04/28 03:23:14;;;;;;;17.27;15.55;;;12.40;44.60;;;;;;5012527;28;20084;-79
2021/04/28 03:25:43;;;;;;;19.80;16.98;;;12.30;44.40;;;;;;5011311;28;20049;-79
2021/04/28 03:28:10;;;;;;;16.70;14.95;;;12.30;44.50;;;;;;5015508;28;20029;-80
2021/04/28 03:30:38;;;;;;;17.60;15.73;;;12.30;44.50;;;;;;5016491;28;20021;-80
2021/04/28 03:33:04;;;;;;;19.65;17.23;;;12.30;44.60;;;;;;4999031;28;20448;-81
2021/04/28 03:35:39;;;;;;;17.15;15.38;;;12.30;44.60;;;;;;5017108;28;20026;-79
2021/04/28 03:38:24;;;;;;;17.42;15.73;;;12.20;44.50;;;;;;5018446;28;20453;-80
2021/04/28 03:40:51;;;;;;;18.88;16.75;;;12.20;44.50;;;;;;5015429;28;20027;-80
2021/04/28 03:43:17;;;;;;;17.15;15.45;;;12.20;44.60;;;;;;5015354;28;20063;-81
2021/04/28 03:45:44;;;;;;;19.25;17.27;;;12.20;44.70;;;;;;4998422;28;20021;-79
2021/04/28 03:48:17;;;;;;;18.20;16.43;;;12.10;44.50;;;;;;5000217;28;20323;-80
2021/04/28 03:50:44;;;;;;;19.02;16.92;;;12.10;44.50;;;;;;4999148;28;20029;-80
2021/04/28 03:53:10;;;;;;;18.05;16.00;;;12.10;44.60;;;;;;5015015;28;20033;-80
2021/04/28 03:55:41;;;;;;;21.30;16.45;;;12.10;44.60;;;;;;4999800;28;20152;-80
2021/04/28 03:58:07;;;;;;;20.38;17.35;;;12.00;44.50;;;;;;5015235;28;20025;-80
2021/04/28 04:00:34;;;;;;;19.48;16.60;;;12.00;44.50;;;;;;4999258;28;20029;-80
2021/04/28 04:03:15;;;;;;;19.40;16.70;;;12.00;44.50;;;;;;5014691;28;20030;-79
2021/04/28 04:06:17;;;;;;;17.98;16.10;;;11.90;44.40;;;;;;4952289;29;20055;-80
2021/04/28 04:09:06;;;;;;;19.17;17.23;;;11.90;44.40;;;;;;5025239;28;20025;-79
2021/04/28 04:11:33;;;;;;;19.10;17.17;;;11.90;44.40;;;;;;5014735;28;20025;-81
2021/04/28 04:14:00;;;;;;;19.23;16.75;;;11.80;44.30;;;;;;5032767;28;20042;-80
2021/04/28 04:16:26;;;;;;;18.80;16.48;;;11.80;44.40;;;;;;4998723;28;20240;-81
2021/04/28 04:18:52;;;;;;;18.67;16.65;;;11.80;44.40;;;;;;4998556;28;20033;-81
2021/04/28 04:21:20;;;;;;;19.10;17.17;;;11.80;44.50;;;;;;5014823;28;20034;-81
2021/04/28 04:23:58;;;;;;;17.90;15.50;;;11.70;44.40;;;;;;5014404;28;20029;-81
2021/04/28 04:26:44;;;;;;;;;;;11.70;45.00;;;;;;5018182;28;20048;-80
2021/04/28 04:29:46;;;;;;;18.08;15.65;;;11.70;44.40;;;;;;4967263;28;20530;-81
2021/04/28 04:32:33;;;;;;;17.85;16.05;;;11.60;44.10;;;;;;4984703;28;20512;-79
2021/04/28 04:35:32;;;;;;;18.20;16.38;;;11.60;44.20;;;;;;4997417;28;20045;-80
2021/04/28 04:38:36;;;;;;;16.90;15.20;;;11.60;44.30;;;;;;4970206;28;20042;-80
2021/04/28 04:41:22;;;;;;;;;;;11.60;44.30;;;;;;4971158;28;20041;-80
2021/04/28 04:44:07;;;;;;;18.23;16.30;;;11.50;44.10;;;;;;5006245;28;19909;-79
2021/04/28 04:46:44;;;;;;;20.17;17.17;;;11.50;44.00;;;;;;4999386;28;20055;-80
2021/04/28 04:49:10;;;;;;;19.35;16.85;;;11.50;44.10;;;;;;4975820;28;20044;-80
2021/04/28 04:51:37;;;;;;;20.02;17.92;;;11.50;44.20;;;;;;4991201;28;20029;-81
2021/04/28 04:54:04;;;;;;;20.02;17.73;;;11.40;44.20;;;;;;4971465;28;20128;-79
2021/04/28 04:56:30;;;;;;;19.83;17.75;;;11.40;44.20;;;;;;4990119;28;20034;-81
2021/04/28 04:58:56;;;;;;;18.73;16.75;;;11.40;44.30;;;;;;4984365;28;20060;-79
2021/04/28 05:01:22;;;;;;;19.65;17.15;;;11.40;44.40;;;;;;5008189;28;20557;-80
2021/04/28 05:03:48;;;;;;;18.92;17.10;;;11.40;44.50;;;;;;4997759;28;20084;-82
2021/04/28 05:06:16;;;;;;;23.67;18.92;;;11.30;44.40;;;;;;4991315;28;20022;-81
2021/04/28 05:08:44;;;;;;;20.38;18.35;;;11.30;44.50;;;;;;4994900;28;20532;-80
2021/04/28 05:11:10;;;;;;;20.60;17.75;;;11.30;44.50;;;;;;4970614;28;20077;-80
2021/04/28 05:13:36;;;;;;;20.23;17.88;;;11.30;44.60;;;;;;4984340;28;20504;-80
2021/04/28 05:16:02;;;;;;;20.88;17.90;;;11.20;44.40;;;;;;5010257;28;20029;-80
2021/04/28 05:18:28;;;;;;;19.05;17.20;;;11.20;44.50;;;;;;5010722;28;20029;-78
2021/04/28 05:20:54;;;;;;;19.23;17.33;;;11.20;44.50;;;;;;5027049;28;20030;-81
2021/04/28 05:23:20;;;;;;;19.85;17.75;;;11.20;44.50;;;;;;5031722;28;20508;-79
2021/04/28 05:26:05;;;;;;;21.35;18.42;;;11.20;44.60;;;;;;5016099;28;20046;-79
2021/04/28 05:28:31;;;;;;;19.40;17.40;;;11.10;44.50;;;;;;4989305;28;20545;-79
2021/04/28 05:30:58;;;;;;;20.63;18.63;;;11.10;44.50;;;;;;5031623;28;20030;-79
2021/04/28 05:33:24;;;;;;;19.25;17.35;;;11.10;44.50;;;;;;5008384;28;20038;-79
2021/04/28 05:35:51;;;;;;;20.52;17.75;;;11.10;44.60;;;;;;4989375;28;20030;-81
2021/04/28 05:38:17;;;;;;;19.35;17.08;;;11.10;44.60;;;;;;4985799;28;20121;-80
2021/04/28 05:40:44;;;;;;;18.80;16.65;;;11.10;44.70;;;;;;5000268;28;20033;-85
2021/04/28 05:43:10;;;;;;;18.63;16.73;;;11.10;44.70;;;;;;5000929;28;20444;-79
2021/04/28 05:45:43;;;;;;;18.52;16.55;;;11.10;44.70;;;;;;5026266;28;20044;-79
2021/04/28 05:48:14;;;;;;;18.23;16.20;;;11.10;44.80;;;;;;4993184;28;20412;-80
2021/04/28 05:50:42;;;;;;;18.25;16.40;;;11.10;44.90;;;;;;5010101;28;20029;-80
2021/04/28 05:53:10;;;;;;;19.95;17.30;;;11.10;44.80;;;;;;5008517;28;20037;-79
2021/04/28 05:55:37;;;;;;;17.67;15.93;;;11.10;44.90;;;;;;5008394;28;20030;-80
2021/04/28 05:58:05;;;;;;;18.20;16.27;;;11.00;44.70;;;;;;5008344;28;20522;-80
2021/04/28 06:00:31;;;;;;;18.30;16.40;;;11.00;44.70;;;;;;4991753;28;20140;-78
2021/04/28 06:02:57;;;;;;;17.33;15.52;;;11.10;44.90;;;;;;4991261;28;20707;-79
2021/04/28 06:05:23;;;;;;;19.33;17.48;;;11.10;44.90;;;;;;5008444;28;20021;-80
2021/04/28 06:07:49;;;;;;;19.33;17.02;;;11.00;44.70;;;;;;5008450;28;20592;-79
2021/04/28 06:10:19;;;;;;;18.92;16.92;;;11.10;44.90;;;;;;4996448;28;20431;-78
2021/04/28 06:12:46;;;;;;;20.17;16.65;;;11.10;44.90;;;;;;4995846;28;20489;-78
2021/04/28 06:15:14;;;;;;;17.02;15.23;;;11.10;44.90;;;;;;5012802;28;20032;-80
2021/04/28 06:17:41;;;;;;;17.77;15.98;;;11.20;45.00;;;;;;4995458;28;20065;-81
2021/04/28 06:20:13;;;;;;;16.73;14.95;;;11.20;45.00;;;;;;5003696;28;20076;-77
2021/04/28 06:22:41;;;;;;;15.55;14.05;;;11.20;44.90;;;;;;5002373;28;20036;-79
2021/04/28 06:25:08;;;;;;;18.00;16.23;;;11.20;44.90;;;;;;5003214;28;20077;-79
2021/04/28 06:27:34;;;;;;;17.05;15.05;;;11.30;45.10;;;;;;4991896;28;20143;-80
2021/04/28 06:30:01;;;;;;;17.98;15.45;;;11.30;45.00;;;;;;5011836;28;20025;-79
2021/04/28 06:32:27;;;;;;;16.92;15.23;;;11.30;45.00;;;;;;5011886;28;20057;-80
2021/04/28 06:34:54;;;;;;;17.80;15.85;;;11.30;44.90;;;;;;5013517;28;20037;-80
2021/04/28 06:37:20;;;;;;;16.75;15.05;;;11.30;44.90;;;;;;5011347;28;20026;-80
2021/04/28 06:39:46;;;;;;;17.40;15.70;;;11.30;44.90;;;;;;5011923;28;20171;-80
2021/04/28 06:42:14;;;;;;;15.32;13.75;;;11.40;45.10;;;;;;5012117;28;20115;-80
2021/04/28 06:44:40;;;;;;;16.48;14.82;;;11.30;44.90;;;;;;5011643;28;20167;-81
2021/04/28 06:47:07;;;;;;;17.65;15.82;;;11.30;44.90;;;;;;4995273;28;20067;-79
2021/04/28 06:49:33;;;;;;;16.25;14.65;;;11.40;45.10;;;;;;5011709;28;20033;-79
2021/04/28 06:51:59;;;;;;;15.25;13.73;;;11.30;44.90;;;;;;4979269;28;20492;-79
2021/04/28 06:54:26;;;;;;;15.90;13.95;;;11.30;44.90;;;;;;4995293;28;20036;-80
2021/04/28 06:56:52;;;;;;;15.75;14.25;;;11.30;45.00;;;;;;5011221;28;20502;-79
2021/04/28 06:59:26;;;;;;;15.73;14.27;;;11.30;45.00;;;;;;5016544;28;20164;-86
2021/04/28 07:01:53;;;;;;;16.27;14.68;;;11.30;45.00;;;;;;5030334;28;20123;-84
2021/04/28 07:04:19;;;;;;;15.65;14.13;;;11.30;45.00;;;;;;5008963;28;20033;-84
2021/04/28 07:06:47;;;;;;;16.70;13.88;;;11.30;45.00;;;;;;5009812;28;20049;-85
2021/04/28 07:09:16;;;;;;;15.20;13.70;;;11.30;45.00;;;;;;5008110;28;20424;-84
2021/04/28 07:11:42;;;;;;;15.23;13.65;;;11.30;45.60;;;;;;4995817;28;20033;-84
2021/04/28 07:14:08;;;;;;;15.05;13.65;;;11.20;44.90;;;;;;4995687;28;20041;-83
2021/04/28 07:17:05;;;;;;;15.30;13.48;;;11.20;44.90;;;;;;5012274;28;20021;-86
2021/04/28 07:21:34;;;;;;;15.02;13.50;;;11.20;45.00;;;;;;5030285;28;20519;-86
2021/04/28 07:25:44;;;;;;;14.80;13.50;;;11.20;44.90;;;;;;5030426;28;20050;-90
2021/04/28 07:28:54;;;;;;;13.93;12.63;;;11.20;44.90;;;;;;5009053;28;20037;-86
2021/04/28 07:32:03;;;;;;;14.43;12.95;;;11.20;44.90;;;;;;5013169;28;20036;-86
2021/04/28 07:35:04;;;;;;;14.80;13.23;;;11.30;45.00;;;;;;5031791;28;20120;-87
2021/04/28 07:37:47;;;;;;;14.25;12.85;;;11.30;45.00;;;;;;4995660;28;20503;-84
2021/04/28 07:40:40;;;;;;;15.73;13.82;;;11.30;45.10;;;;;;5013237;28;20037;-85
2021/04/28 07:43:09;;;;;;;14.48;13.05;;;11.40;45.20;;;;;;4996336;28;20041;-86
2021/04/28 07:46:26;;;;;;;13.63;12.27;;;11.50;45.20;;;;;;5013135;28;20034;-86
2021/04/28 07:52:35;;;;;;;14.57;13.20;;;11.60;45.30;;;;;;4995788;28;20052;-83
2021/04/28 07:55:01;;;;;;;14.50;13.00;;;11.70;45.30;;;;;;5011914;28;20029;-83
2021/04/28 08:03:00;;;;;;;13.00;11.60;;;12.00;46.50;;;;;;4926324;29;20201;-91
2021/04/28 08:05:26;;;;;;;14.52;13.07;;;12.40;46.00;;;;;;4914418;29;20130;-84
2021/04/28 08:07:54;;;;;;;11.75;9.95;;;12.60;46.00;;;;;;4910234;29;20095;-77
2021/04/28 08:10:20;;;;;;;11.70;10.30;;;12.70;46.50;;;;;;4892412;29;20078;-76
2021/04/28 08:12:47;;;;;;;11.15;10.07;;;12.80;47.40;;;;;;4913724;29;20051;-82
2021/04/28 08:15:15;;;;;;;11.98;10.82;;;13.00;48.40;;;;;;4879161;29;20068;-83
2021/04/28 08:17:41;;;;;;;10.90;9.82;;;13.20;49.10;;;;;;4901367;29;20046;-83
2021/04/28 08:20:11;;;;;;;10.68;9.27;;;13.30;49.50;;;;;;4914477;29;20079;-82
2021/04/28 08:22:38;;;;;;;12.07;10.85;;;13.40;50.00;;;;;;4898519;29;20035;-79
2021/04/28 08:25:09;;;;;;;11.73;10.57;;;13.60;50.70;;;;;;4915241;29;20131;-81
2021/04/28 08:27:35;;;;;;;11.50;10.38;;;13.60;50.90;;;;;;4898136;29;20090;-80
2021/04/28 08:30:07;;;;;;;11.82;10.38;;;13.70;51.20;;;;;;4946557;29;20038;-79
2021/04/28 08:32:34;;;;;;;11.05;10.00;;;13.90;51.80;;;;;;4921219;28;20050;-82
2021/04/28 08:35:00;;;;;;;13.10;10.98;;;14.10;52.10;;;;;;4935323;28;20466;-82
2021/04/28 08:37:27;;;;;;;10.98;9.90;;;14.20;52.40;;;;;;4933531;28;20042;-79
2021/04/28 08:39:53;;;;;;;11.57;10.30;;;14.40;52.70;;;;;;4968910;28;20092;-79
2021/04/28 08:42:20;;;;;;;10.77;9.68;;;14.60;52.90;;;;;;4969414;28;20453;-81
2021/04/28 08:44:46;;;;;;;10.30;9.35;;;14.70;52.90;;;;;;4969522;28;20389;-80
2021/04/28 08:47:14;;;;;;;11.45;10.35;;;14.90;53.10;;;;;;4953668;28;20126;-84
2021/04/28 08:49:41;;;;;;;11.02;9.85;;;15.00;53.20;;;;;;4968768;28;20160;-81
2021/04/28 08:52:08;;;;;;;10.27;9.32;;;15.10;53.30;;;;;;4969375;28;20064;-86
2021/04/28 08:54:36;;;;;;;10.63;9.30;;;15.30;53.40;;;;;;4969950;28;20042;-79
2021/04/28 08:57:02;;;;;;;10.68;9.68;;;15.40;53.40;;;;;;4985000;28;20033;-84
2021/04/28 08:59:29;;;;;;;10.13;9.13;;;15.50;53.30;;;;;;5010369;28;20116;-85
2021/04/28 09:02:11;;;;;;;10.25;9.23;;;15.60;53.30;;;;;;5011126;28;20029;-86
2021/04/28 09:04:37;;;;;;;10.75;9.63;;;15.60;53.30;;;;;;5010887;28;20022;-85
2021/04/28 09:07:03;;;;;;;9.77;8.98;;;15.70;53.20;;;;;;4982996;28;20100;-84
2021/04/28 09:09:29;;;;;;;10.55;9.55;;;15.70;53.20;;;;;;5035251;28;20025;-84
2021/04/28 09:11:58;;;;;;;9.63;8.68;;;15.80;53.30;;;;;;4992991;28;20033;-84
2021/04/28 09:14:28;;;;;;;9.40;8.50;;;15.90;53.40;;;;;;5008955;28;20037;-85
2021/04/28 09:16:54;;;;;;;9.98;8.98;;;16.00;53.30;;;;;;5009637;28;20037;-84
2021/04/28 09:19:50;;;;;;;9.52;8.63;;;16.00;53.10;;;;;;5019394;28;20477;-83
2021/04/28 09:22:36;;;;;;;9.93;9.02;;;16.10;53.10;;;;;;5011539;28;20036;-84
2021/04/28 09:25:48;;;;;;;10.05;9.10;;;16.20;53.10;;;;;;5004000;28;20553;-80
2021/04/28 09:28:32;;;;;;;10.52;9.50;;;16.40;53.30;;;;;;5008251;28;20088;-84
2021/04/28 09:31:08;;;;;;;9.32;8.60;;;16.60;53.30;;;;;;4974242;28;20041;-83
2021/04/28 09:33:59;;;;;;;9.63;8.50;;;16.90;53.60;;;;;;4990122;28;20432;-83
2021/04/28 09:36:41;;;;;;;10.05;9.20;;;17.10;53.40;;;;;;4990447;28;20038;-80
2021/04/28 09:39:37;;;;;;;9.85;8.98;;;17.30;53.20;;;;;;4988940;28;20084;-81
2021/04/28 09:42:56;;;;;;;9.85;8.95;;;17.50;53.10;;;;;;5010041;28;20120;-82
2021/04/28 09:45:46;;;;;;;8.45;7.72;;;17.60;52.80;;;;;;4991862;28;20119;-83
2021/04/28 09:48:20;;;;;;;8.85;7.95;;;17.70;52.80;;;;;;4988773;28;20034;-81
2021/04/28 09:50:47;;;;;;;8.68;7.88;;;17.70;52.50;;;;;;4989121;28;20084;-82
2021/04/28 09:53:26;;;;;;;9.45;8.45;;;17.70;52.40;;;;;;4988151;28;20335;-82
2021/04/28 09:55:53;;;;;;;9.88;8.88;;;17.80;52.40;;;;;;4972795;28;20061;-81
2021/04/28 09:58:49;;;;;;;9.18;8.35;;;17.70;52.10;;;;;;4993187;28;20034;-89
2021/04/28 10:01:29;;;;;;;10.75;9.70;;;17.80;52.10;;;;;;4970132;28;20038;-83
2021/04/28 10:03:56;;;;;;;10.55;9.52;;;17.80;52.00;;;;;;4990436;28;20048;-81
2021/04/28 10:06:50;;;;;;;10.20;9.30;;;17.90;51.90;;;;;;4973922;28;20022;-82
2021/04/28 10:09:43;;;;;;;11.15;10.07;;;17.90;51.70;;;;;;4975945;28;20038;-84
2021/04/28 10:12:30;;;;;;;10.15;9.20;;;18.00;51.70;;;;;;4990949;28;20060;-84
2021/04/28 10:15:00;;;;;;;11.05;9.90;;;18.00;51.60;;;;;;4990423;28;20049;-87
2021/04/28 10:17:35;;;;;;;9.83;8.87;;;18.20;51.80;;;;;;5008235;28;20037;-83
2021/04/28 10:20:05;;;;;;;10.88;9.77;;;18.30;51.80;;;;;;5005836;28;20448;-81
2021/04/28 10:22:32;;;;;;;11.10;10.00;;;18.40;51.60;;;;;;4989509;28;20034;-82
2021/04/28 10:25:02;;;;;;;11.63;10.52;;;18.50;51.50;;;;;;4979301;28;20132;-78
2021/04/28 10:27:29;;;;;;;12.57;11.23;;;18.50;51.30;;;;;;5008705;28;20056;-80
2021/04/28 10:29:55;;;;;;;11.25;10.13;;;18.60;51.30;;;;;;4992612;28;20323;-83
2021/04/28 10:32:23;;;;;;;11.80;10.60;;;18.70;51.30;;;;;;4993455;28;20036;-80
2021/04/28 10:34:52;;;;;;;12.85;11.55;;;18.70;51.10;;;;;;5008712;28;20029;-81
2021/04/28 10:37:25;;;;;;;11.93;10.35;;;18.70;50.90;;;;;;5008625;28;20557;-84
2021/04/28 10:39:52;;;;;;;;;;;18.80;51.00;;;;;;5021745;28;20064;-83
2021/04/28 10:42:36;;;;;;;11.35;9.68;;;18.90;51.20;;;;;;5006221;28;19964;-81
2021/04/28 10:45:31;;;;;;;12.27;11.15;;;18.90;50.90;;;;;;5008127;28;20041;-85
2021/04/28 10:47:57;;;;;;;14.32;11.25;;;19.00;50.90;;;;;;5024669;28;20069;-81
2021/04/28 10:50:42;;;;;;;12.20;10.73;;;19.00;50.80;;;;;;5007894;28;20053;-81
2021/04/28 10:53:23;;;;;;;12.73;11.43;;;19.00;50.70;;;;;;5024389;28;20048;-82
2021/04/28 10:56:12;;;;;;;12.85;10.15;;;19.10;50.70;;;;;;5009364;28;20037;-81
2021/04/28 10:58:42;;;;;;;11.90;10.55;;;19.20;50.80;;;;;;5012151;28;20121;-80
2021/04/28 11:01:16;;;;;;;11.43;10.40;;;19.20;50.60;;;;;;5012099;28;20112;-85
2021/04/28 11:03:50;;;;;;;13.38;10.68;;;19.40;50.70;;;;;;5013269;28;20041;-86
2021/04/28 11:06:25;;;;;;;12.15;10.15;;;19.50;50.70;;;;;;5028353;28;20041;-84
2021/04/28 11:09:00;;;;;;;11.52;9.63;;;19.60;50.70;;;;;;5011478;28;20029;-83
2021/04/28 11:11:51;;;;;;;11.18;10.02;;;19.70;50.70;;;;;;5011801;28;20029;-82
2021/04/28 11:14:29;;;;;;;12.45;11.35;;;19.80;50.70;;;;;;5028052;28;20069;-83
2021/04/28 11:16:59;;;;;;;13.43;11.02;;;19.90;50.70;;;;;;5029515;28;20056;-79
2021/04/28 11:19:56;;;;;;;12.05;10.82;;;20.00;50.60;;;;;;5028662;28;20112;-84
2021/04/28 11:22:23;;;;;;;11.57;10.35;;;20.10;50.50;;;;;;4995957;28;20029;-83
2021/04/28 11:24:50;;;;;;;10.75;9.68;;;20.30;50.70;;;;;;5013555;28;20076;-87
2021/04/28 11:27:57;;;;;;;12.30;10.30;;;20.40;50.60;;;;;;5016034;28;20060;-86
2021/04/28 11:30:38;;;;;;;13.40;10.60;;;20.40;50.30;;;;;;4998762;28;20060;-86
2021/04/28 11:33:34;;;;;;;10.98;9.88;;;20.40;50.80;;;;;;4997158;28;20040;-89
2021/04/28 11:36:58;;;;;;;10.55;9.52;;;20.50;50.30;;;;;;5014813;28;20045;-90
2021/04/28 11:39:57;;;;;;;9.77;8.93;;;20.50;50.80;;;;;;5013237;28;20101;-92
2021/04/28 11:42:23;;;;;;;11.50;9.63;;;20.40;50.00;;;;;;5000527;28;20152;-90
2021/04/28 11:44:57;;;;;;;12.55;10.52;;;20.40;49.90;;;;;;5016483;28;20106;-87
2021/04/28 11:47:27;;;;;;;11.35;10.20;;;20.40;49.80;;;;;;5017873;28;20033;-89
2021/04/28 11:49:57;;;;;;;10.82;9.90;;;20.30;49.50;;;;;;5015573;28;20108;-86
2021/04/28 11:52:34;;;;;;;12.93;10.48;;;20.30;49.50;;;;;;4999449;28;20040;-84
2021/04/28 11:55:01;;;;;;;11.27;10.18;;;20.30;49.50;;;;;;5017169;28;20049;-81
2021/04/28 11:57:36;;;;;;;10.35;9.23;;;20.20;49.90;;;;;;5018860;28;20033;-84
2021/04/28 12:00:32;;;;;;;10.20;9.13;;;20.10;49.20;;;;;;4953731;28;20042;-87
2021/04/28 12:03:02;;;;;;;11.82;9.68;;;20.10;49.30;;;;;;4994546;28;20046;-87
2021/04/28 12:05:28;;;;;;;15.95;10.50;;;20.10;49.30;;;;;;4988798;28;20041;-82
2021/04/28 12:07:54;;;;;;;12.32;9.45;;;20.10;49.30;;;;;;4978318;28;20026;-86
2021/04/28 12:10:20;;;;;;;12.30;9.48;;;20.10;49.30;;;;;;5031274;28;20401;-83
2021/04/28 12:12:46;;;;;;;11.50;10.02;;;20.10;49.30;;;;;;5010647;28;20040;-83
2021/04/28 12:15:14;;;;;;;10.88;9.77;;;20.20;49.30;;;;;;5011186;28;20040;-85
2021/04/28 12:17:45;;;;;;;10.73;9.57;;;20.30;49.40;;;;;;5028033;28;20030;-84
2021/04/28 12:20:24;;;;;;;11.32;10.25;;;20.40;49.40;;;;;;5032236;28;20103;-83
2021/04/28 12:22:51;;;;;;;10.52;9.52;;;20.40;49.20;;;;;;4999094;28;20043;-90
2021/04/28 12:25:23;;;;;;;9.63;8.75;;;20.50;49.40;;;;;;5031515;28;20041;-86
2021/04/28 12:27:58;;;;;;;10.55;9.45;;;20.40;49.20;;;;;;5012324;28;20121;-81
2021/04/28 12:30:27;;;;;;;11.27;9.88;;;20.40;49.10;;;;;;5010876;28;20033;-84
2021/04/28 12:32:57;;;;;;;11.23;10.05;;;20.40;49.10;;;;;;5016739;28;20033;-88
2021/04/28 12:35:41;;;;;;;10.35;9.35;;;20.40;49.10;;;;;;5030384;28;20064;-83
2021/04/28 12:38:13;;;;;;;9.90;9.00;;;20.30;48.90;;;;;;4993062;28;20116;-83
2021/04/28 12:41:05;;;;;;;11.07;9.98;;;20.20;48.80;;;;;;4992739;28;20506;-82
2021/04/28 12:43:39;;;;;;;10.60;9.57;;;20.00;48.50;;;;;;5011140;28;20025;-82
2021/04/28 12:46:15;;;;;;;11.30;10.10;;;19.90;48.50;;;;;;5014066;28;20064;-80
2021/04/28 12:49:00;;;;;;;12.82;10.57;;;19.80;48.50;;;;;;5011516;28;20489;-83
2021/04/28 12:51:31;;;;;;;11.43;10.30;;;19.60;48.20;;;;;;5010837;28;20035;-84
2021/04/28 12:54:39;;;;;;;;;;;19.50;48.30;;;;;;5006533;28;20039;-83
2021/04/28 12:57:23;;;;;;;15.38;11.40;;;19.40;48.40;;;;;;4993254;28;20368;-84
2021/04/28 13:00:23;;;;;;;11.73;10.23;;;19.40;48.40;;;;;;5008927;28;20099;-81
2021/04/28 13:03:10;;;;;;;11.43;10.27;;;19.40;48.40;;;;;;4972010;28;20080;-83
2021/04/28 13:05:40;;;;;;;11.35;10.20;;;19.40;48.50;;;;;;5009600;28;20069;-86
2021/04/28 13:08:44;;;;;;;14.65;10.30;;;19.40;48.40;;;;;;4995253;28;20048;-83
2021/04/28 13:11:21;;;;;;;11.63;10.50;;;19.40;48.40;;;;;;5028892;28;20050;-82
2021/04/28 13:13:56;;;;;;;10.98;9.85;;;19.40;48.50;;;;;;5012197;28;20045;-84